sensor_id;sensor_type;location;lat;lon;timestamp;P1;durP1;ratioP1;P2;durP2;ratioP2
1925;SDS011;964;42.606;23.588;2023-06-22T00:00:01;14.23;;;12.83;;
1925;SDS011;964;42.606;23.588;2023-06-22T00:02:35;14.97;;;13.37;;
1925;SDS011;964;42.606;23.588;2023-06-22T00:05:02;14.70;;;13.10;;
1925;SDS011;964;42.606;23.588;2023-06-22T00:07:29;15.17;;;13.57;;
1925;SDS011;964;42.606;23.588;2023-06-22T00:09:56;13.03;;;11.60;;
1925;SDS011;964;42.606;23.588;2023-06-22T00:12:23;14.77;;;13.27;;
1925;SDS011;964;42.606;23.588;2023-06-22T00:14:51;14.30;;;12.80;;
1925;SDS011;964;42.606;23.588;2023-06-22T00:17:17;16.27;;;12.67;;
1925;SDS011;964;42.606;23.588;2023-06-22T00:19:46;13.80;;;12.40;;
1925;SDS011;964;42.606;23.588;2023-06-22T00:22:13;14.07;;;12.53;;
1925;SDS011;964;42.606;23.588;2023-06-22T00:24:39;13.40;;;11.97;;
1925;SDS011;964;42.606;23.588;2023-06-22T00:27:06;14.90;;;12.40;;
1925;SDS011;964;42.606;23.588;2023-06-22T00:29:33;17.43;;;14.23;;
1925;SDS011;964;42.606;23.588;2023-06-22T00:32:01;12.83;;;11.50;;
1925;SDS011;964;42.606;23.588;2023-06-22T00:34:28;14.40;;;12.30;;
1925;SDS011;964;42.606;23.588;2023-06-22T00:36:55;14.83;;;11.90;;
1925;SDS011;964;42.606;23.588;2023-06-22T00:39:22;12.70;;;11.37;;
1925;SDS011;964;42.606;23.588;2023-06-22T00:41:49;15.13;;;12.03;;
1925;SDS011;964;42.606;23.588;2023-06-22T00:44:16;12.67;;;11.20;;
1925;SDS011;964;42.606;23.588;2023-06-22T00:46:42;13.43;;;12.03;;
1925;SDS011;964;42.606;23.588;2023-06-22T00:49:10;21.53;;;12.53;;
1925;SDS011;964;42.606;23.588;2023-06-22T00:51:38;14.20;;;12.63;;
1925;SDS011;964;42.606;23.588;2023-06-22T00:54:12;13.90;;;12.50;;
1925;SDS011;964;42.606;23.588;2023-06-22T00:56:39;14.50;;;13.10;;
1925;SDS011;964;42.606;23.588;2023-06-22T00:59:07;14.47;;;13.07;;
1925;SDS011;964;42.606;23.588;2023-06-22T01:01:37;13.10;;;11.80;;
1925;SDS011;964;42.606;23.588;2023-06-22T01:04:06;26.20;;;14.33;;
1925;SDS011;964;42.606;23.588;2023-06-22T01:06:35;24.63;;;14.30;;
1925;SDS011;964;42.606;23.588;2023-06-22T01:09:12;21.90;;;13.53;;
1925;SDS011;964;42.606;23.588;2023-06-22T01:11:42;22.00;;;13.27;;
1925;SDS011;964;42.606;23.588;2023-06-22T01:14:15;20.43;;;12.63;;
1925;SDS011;964;42.606;23.588;2023-06-22T01:16:49;14.60;;;12.90;;
1925;SDS011;964;42.606;23.588;2023-06-22T01:19:27;14.10;;;11.57;;
1925;SDS011;964;42.606;23.588;2023-06-22T01:22:03;13.03;;;11.67;;
1925;SDS011;964;42.606;23.588;2023-06-22T01:24:41;15.50;;;12.70;;
1925;SDS011;964;42.606;23.588;2023-06-22T01:27:23;15.33;;;13.50;;
1925;SDS011;964;42.606;23.588;2023-06-22T01:29:59;14.80;;;11.53;;
1925;SDS011;964;42.606;23.588;2023-06-22T01:32:29;15.37;;;12.60;;
1925;SDS011;964;42.606;23.588;2023-06-22T01:34:58;14.20;;;12.70;;
1925;SDS011;964;42.606;23.588;2023-06-22T01:37:27;13.87;;;11.57;;
1925;SDS011;964;42.606;23.588;2023-06-22T01:39:56;13.80;;;12.07;;
1925;SDS011;964;42.606;23.588;2023-06-22T01:42:24;14.50;;;12.30;;
1925;SDS011;964;42.606;23.588;2023-06-22T01:44:52;13.33;;;11.80;;
1925;SDS011;964;42.606;23.588;2023-06-22T01:47:21;13.37;;;11.93;;
1925;SDS011;964;42.606;23.588;2023-06-22T01:49:48;13.27;;;11.90;;
1925;SDS011;964;42.606;23.588;2023-06-22T01:52:17;14.07;;;11.30;;
1925;SDS011;964;42.606;23.588;2023-06-22T01:54:46;13.67;;;11.73;;
1925;SDS011;964;42.606;23.588;2023-06-22T01:57:13;15.57;;;11.80;;
1925;SDS011;964;42.606;23.588;2023-06-22T01:59:42;14.10;;;11.80;;
1925;SDS011;964;42.606;23.588;2023-06-22T02:02:16;17.03;;;11.70;;
1925;SDS011;964;42.606;23.588;2023-06-22T02:04:52;14.20;;;12.30;;
1925;SDS011;964;42.606;23.588;2023-06-22T02:07:23;13.73;;;11.07;;
1925;SDS011;964;42.606;23.588;2023-06-22T02:09:53;13.30;;;12.00;;
1925;SDS011;964;42.606;23.588;2023-06-22T02:12:22;13.30;;;11.90;;
1925;SDS011;964;42.606;23.588;2023-06-22T02:14:52;15.97;;;12.33;;
1925;SDS011;964;42.606;23.588;2023-06-22T02:17:22;14.30;;;12.80;;
1925;SDS011;964;42.606;23.588;2023-06-22T02:19:52;14.00;;;11.70;;
1925;SDS011;964;42.606;23.588;2023-06-22T02:22:18;14.73;;;10.73;;
1925;SDS011;964;42.606;23.588;2023-06-22T02:24:45;12.63;;;10.63;;
1925;SDS011;964;42.606;23.588;2023-06-22T02:27:12;13.00;;;11.23;;
1925;SDS011;964;42.606;23.588;2023-06-22T02:29:38;12.90;;;10.83;;
1925;SDS011;964;42.606;23.588;2023-06-22T02:32:08;14.50;;;10.43;;
1925;SDS011;964;42.606;23.588;2023-06-22T02:34:36;13.83;;;12.17;;
1925;SDS011;964;42.606;23.588;2023-06-22T02:37:03;12.07;;;10.87;;
1925;SDS011;964;42.606;23.588;2023-06-22T02:39:30;14.30;;;12.70;;
1925;SDS011;964;42.606;23.588;2023-06-22T02:41:57;15.17;;;11.97;;
1925;SDS011;964;42.606;23.588;2023-06-22T02:44:23;14.97;;;12.70;;
1925;SDS011;964;42.606;23.588;2023-06-22T02:46:50;13.87;;;12.37;;
1925;SDS011;964;42.606;23.588;2023-06-22T02:49:17;13.27;;;11.83;;
1925;SDS011;964;42.606;23.588;2023-06-22T02:51:46;13.30;;;11.90;;
1925;SDS011;964;42.606;23.588;2023-06-22T02:54:13;14.13;;;11.97;;
1925;SDS011;964;42.606;23.588;2023-06-22T02:56:41;15.47;;;13.23;;
1925;SDS011;964;42.606;23.588;2023-06-22T02:59:08;15.40;;;12.60;;
1925;SDS011;964;42.606;23.588;2023-06-22T03:01:36;22.10;;;13.60;;
1925;SDS011;964;42.606;23.588;2023-06-22T03:04:05;14.80;;;12.20;;
1925;SDS011;964;42.606;23.588;2023-06-22T03:06:32;15.50;;;12.20;;
1925;SDS011;964;42.606;23.588;2023-06-22T03:09:01;14.90;;;13.40;;
1925;SDS011;964;42.606;23.588;2023-06-22T03:11:30;17.07;;;14.00;;
1925;SDS011;964;42.606;23.588;2023-06-22T03:13:57;13.70;;;11.70;;
1925;SDS011;964;42.606;23.588;2023-06-22T03:16:24;13.07;;;11.80;;
1925;SDS011;964;42.606;23.588;2023-06-22T03:18:51;15.43;;;12.70;;
1925;SDS011;964;42.606;23.588;2023-06-22T03:21:18;16.20;;;12.60;;
1925;SDS011;964;42.606;23.588;2023-06-22T03:23:45;14.90;;;13.30;;
1925;SDS011;964;42.606;23.588;2023-06-22T03:26:16;14.33;;;12.10;;
1925;SDS011;964;42.606;23.588;2023-06-22T03:28:43;14.40;;;12.90;;
1925;SDS011;964;42.606;23.588;2023-06-22T03:31:09;14.90;;;12.90;;
1925;SDS011;964;42.606;23.588;2023-06-22T03:33:36;17.93;;;13.40;;
1925;SDS011;964;42.606;23.588;2023-06-22T03:36:03;15.30;;;13.17;;
1925;SDS011;964;42.606;23.588;2023-06-22T03:38:30;14.80;;;12.50;;
1925;SDS011;964;42.606;23.588;2023-06-22T03:40:56;15.90;;;13.60;;
1925;SDS011;964;42.606;23.588;2023-06-22T03:43:24;17.47;;;13.03;;
1925;SDS011;964;42.606;23.588;2023-06-22T03:45:51;16.20;;;12.67;;
1925;SDS011;964;42.606;23.588;2023-06-22T03:48:18;15.17;;;12.70;;
1925;SDS011;964;42.606;23.588;2023-06-22T03:50:45;15.70;;;13.47;;
1925;SDS011;964;42.606;23.588;2023-06-22T03:53:11;16.73;;;14.13;;
1925;SDS011;964;42.606;23.588;2023-06-22T03:55:40;16.03;;;13.50;;
1925;SDS011;964;42.606;23.588;2023-06-22T03:58:14;18.27;;;14.83;;
1925;SDS011;964;42.606;23.588;2023-06-22T04:00:42;19.80;;;14.50;;
1925;SDS011;964;42.606;23.588;2023-06-22T04:03:09;15.87;;;13.97;;
1925;SDS011;964;42.606;23.588;2023-06-22T04:05:37;14.50;;;13.00;;
1925;SDS011;964;42.606;23.588;2023-06-22T04:08:04;16.77;;;14.87;;
1925;SDS011;964;42.606;23.588;2023-06-22T04:10:31;17.47;;;13.90;;
1925;SDS011;964;42.606;23.588;2023-06-22T04:12:58;21.10;;;15.00;;
1925;SDS011;964;42.606;23.588;2023-06-22T04:15:24;15.80;;;14.20;;
1925;SDS011;964;42.606;23.588;2023-06-22T04:17:53;15.17;;;13.57;;
1925;SDS011;964;42.606;23.588;2023-06-22T04:20:20;15.23;;;12.93;;
1925;SDS011;964;42.606;23.588;2023-06-22T04:22:47;15.70;;;13.30;;
1925;SDS011;964;42.606;23.588;2023-06-22T04:25:14;16.20;;;14.47;;
1925;SDS011;964;42.606;23.588;2023-06-22T04:27:41;18.53;;;14.20;;
1925;SDS011;964;42.606;23.588;2023-06-22T04:30:07;15.80;;;14.03;;
1925;SDS011;964;42.606;23.588;2023-06-22T04:32:35;16.97;;;14.17;;
1925;SDS011;964;42.606;23.588;2023-06-22T04:35:04;16.27;;;14.03;;
1925;SDS011;964;42.606;23.588;2023-06-22T04:37:31;15.90;;;13.70;;
1925;SDS011;964;42.606;23.588;2023-06-22T04:39:58;15.70;;;13.97;;
1925;SDS011;964;42.606;23.588;2023-06-22T04:42:25;17.63;;;14.47;;
1925;SDS011;964;42.606;23.588;2023-06-22T04:44:52;15.50;;;14.00;;
1925;SDS011;964;42.606;23.588;2023-06-22T04:47:19;17.20;;;13.67;;
1925;SDS011;964;42.606;23.588;2023-06-22T04:49:46;15.07;;;13.00;;
1925;SDS011;964;42.606;23.588;2023-06-22T04:52:14;16.13;;;14.30;;
1925;SDS011;964;42.606;23.588;2023-06-22T04:54:42;16.53;;;13.10;;
1925;SDS011;964;42.606;23.588;2023-06-22T04:57:12;15.53;;;13.00;;
1925;SDS011;964;42.606;23.588;2023-06-22T04:59:40;16.60;;;11.13;;
1925;SDS011;964;42.606;23.588;2023-06-22T05:02:07;15.00;;;13.13;;
1925;SDS011;964;42.606;23.588;2023-06-22T05:04:34;12.60;;;11.30;;
1925;SDS011;964;42.606;23.588;2023-06-22T05:07:03;12.57;;;11.37;;
1925;SDS011;964;42.606;23.588;2023-06-22T05:09:32;12.63;;;11.43;;
1925;SDS011;964;42.606;23.588;2023-06-22T05:11:59;15.07;;;12.80;;
1925;SDS011;964;42.606;23.588;2023-06-22T05:14:27;14.20;;;12.40;;
1925;SDS011;964;42.606;23.588;2023-06-22T05:16:54;17.30;;;14.10;;
1925;SDS011;964;42.606;23.588;2023-06-22T05:19:23;18.33;;;13.10;;
1925;SDS011;964;42.606;23.588;2023-06-22T05:21:50;15.03;;;13.60;;
1925;SDS011;964;42.606;23.588;2023-06-22T05:24:17;13.43;;;12.13;;
1925;SDS011;964;42.606;23.588;2023-06-22T05:26:45;16.50;;;12.27;;
1925;SDS011;964;42.606;23.588;2023-06-22T05:29:12;14.07;;;12.67;;
1925;SDS011;964;42.606;23.588;2023-06-22T05:31:38;14.40;;;12.63;;
1925;SDS011;964;42.606;23.588;2023-06-22T05:34:06;13.37;;;12.07;;
1925;SDS011;964;42.606;23.588;2023-06-22T05:36:33;15.07;;;13.23;;
1925;SDS011;964;42.606;23.588;2023-06-22T05:39:00;17.57;;;13.33;;
1925;SDS011;964;42.606;23.588;2023-06-22T05:41:37;13.10;;;11.80;;
1925;SDS011;964;42.606;23.588;2023-06-22T05:44:05;13.93;;;12.53;;
1925;SDS011;964;42.606;23.588;2023-06-22T05:46:32;14.30;;;12.50;;
1925;SDS011;964;42.606;23.588;2023-06-22T05:48:58;14.33;;;12.93;;
1925;SDS011;964;42.606;23.588;2023-06-22T05:51:25;14.23;;;12.83;;
1925;SDS011;964;42.606;23.588;2023-06-22T05:53:52;13.47;;;11.93;;
1925;SDS011;964;42.606;23.588;2023-06-22T05:56:19;14.13;;;12.10;;
1925;SDS011;964;42.606;23.588;2023-06-22T05:58:46;14.03;;;12.53;;
1925;SDS011;964;42.606;23.588;2023-06-22T06:01:14;15.67;;;12.80;;
1925;SDS011;964;42.606;23.588;2023-06-22T06:03:41;14.33;;;12.50;;
1925;SDS011;964;42.606;23.588;2023-06-22T06:06:09;16.67;;;12.93;;
1925;SDS011;964;42.606;23.588;2023-06-22T06:08:36;13.13;;;11.87;;
1925;SDS011;964;42.606;23.588;2023-06-22T06:11:03;16.47;;;13.43;;
1925;SDS011;964;42.606;23.588;2023-06-22T06:13:29;14.10;;;12.60;;
1925;SDS011;964;42.606;23.588;2023-06-22T06:15:56;16.80;;;14.13;;
1925;SDS011;964;42.606;23.588;2023-06-22T06:18:25;17.60;;;13.23;;
1925;SDS011;964;42.606;23.588;2023-06-22T06:20:52;15.10;;;13.60;;
1925;SDS011;964;42.606;23.588;2023-06-22T06:23:19;16.77;;;13.80;;
1925;SDS011;964;42.606;23.588;2023-06-22T06:25:45;16.87;;;15.07;;
1925;SDS011;964;42.606;23.588;2023-06-22T06:28:12;15.33;;;13.73;;
1925;SDS011;964;42.606;23.588;2023-06-22T06:30:39;15.00;;;13.60;;
1925;SDS011;964;42.606;23.588;2023-06-22T06:33:06;13.90;;;12.40;;
1925;SDS011;964;42.606;23.588;2023-06-22T06:35:35;15.30;;;13.30;;
1925;SDS011;964;42.606;23.588;2023-06-22T06:38:02;14.30;;;12.87;;
1925;SDS011;964;42.606;23.588;2023-06-22T06:40:29;14.00;;;11.60;;
1925;SDS011;964;42.606;23.588;2023-06-22T06:42:56;18.40;;;13.20;;
1925;SDS011;964;42.606;23.588;2023-06-22T06:45:23;15.87;;;13.23;;
1925;SDS011;964;42.606;23.588;2023-06-22T06:47:53;15.00;;;13.50;;
1925;SDS011;964;42.606;23.588;2023-06-22T06:50:20;13.50;;;12.20;;
1925;SDS011;964;42.606;23.588;2023-06-22T06:52:48;15.00;;;11.77;;
1925;SDS011;964;42.606;23.588;2023-06-22T06:55:16;12.73;;;11.50;;
1925;SDS011;964;42.606;23.588;2023-06-22T06:57:45;13.47;;;12.10;;
1925;SDS011;964;42.606;23.588;2023-06-22T07:00:13;15.83;;;12.10;;
1925;SDS011;964;42.606;23.588;2023-06-22T07:02:41;12.97;;;11.70;;
1925;SDS011;964;42.606;23.588;2023-06-22T07:05:13;12.37;;;11.17;;
1925;SDS011;964;42.606;23.588;2023-06-22T07:07:40;11.80;;;10.70;;
1925;SDS011;964;42.606;23.588;2023-06-22T07:10:09;13.00;;;11.80;;
1925;SDS011;964;42.606;23.588;2023-06-22T07:12:36;13.47;;;12.07;;
1925;SDS011;964;42.606;23.588;2023-06-22T07:15:03;13.07;;;11.13;;
1925;SDS011;964;42.606;23.588;2023-06-22T07:17:33;12.40;;;11.20;;
1925;SDS011;964;42.606;23.588;2023-06-22T07:20:00;11.57;;;10.57;;
1925;SDS011;964;42.606;23.588;2023-06-22T07:22:27;11.93;;;10.83;;
1925;SDS011;964;42.606;23.588;2023-06-22T07:24:54;12.77;;;11.50;;
1925;SDS011;964;42.606;23.588;2023-06-22T07:27:22;12.40;;;11.03;;
1925;SDS011;964;42.606;23.588;2023-06-22T07:29:49;11.20;;;9.93;;
1925;SDS011;964;42.606;23.588;2023-06-22T07:32:16;11.70;;;10.57;;
1925;SDS011;964;42.606;23.588;2023-06-22T07:34:43;11.97;;;10.70;;
1925;SDS011;964;42.606;23.588;2023-06-22T07:37:09;13.17;;;10.40;;
1925;SDS011;964;42.606;23.588;2023-06-22T07:39:36;10.60;;;9.60;;
1925;SDS011;964;42.606;23.588;2023-06-22T07:42:03;10.20;;;9.30;;
1925;SDS011;964;42.606;23.588;2023-06-22T07:44:32;10.43;;;9.47;;
1925;SDS011;964;42.606;23.588;2023-06-22T07:46:58;12.13;;;10.20;;
1925;SDS011;964;42.606;23.588;2023-06-22T07:49:25;10.40;;;9.30;;
1925;SDS011;964;42.606;23.588;2023-06-22T07:51:51;10.43;;;9.40;;
1925;SDS011;964;42.606;23.588;2023-06-22T07:54:18;10.60;;;9.50;;
1925;SDS011;964;42.606;23.588;2023-06-22T07:56:45;10.17;;;9.27;;
1925;SDS011;964;42.606;23.588;2023-06-22T07:59:12;9.30;;;8.50;;
1925;SDS011;964;42.606;23.588;2023-06-22T08:01:40;14.30;;;8.50;;
1925;SDS011;964;42.606;23.588;2023-06-22T08:04:07;9.40;;;8.50;;
1925;SDS011;964;42.606;23.588;2023-06-22T08:06:34;9.73;;;8.83;;
1925;SDS011;964;42.606;23.588;2023-06-22T08:09:01;9.40;;;8.63;;
1925;SDS011;964;42.606;23.588;2023-06-22T08:11:27;9.57;;;8.63;;
1925;SDS011;964;42.606;23.588;2023-06-22T08:13:54;9.23;;;8.17;;
1925;SDS011;964;42.606;23.588;2023-06-22T08:16:23;8.60;;;7.63;;
1925;SDS011;964;42.606;23.588;2023-06-22T08:18:51;9.67;;;8.83;;
1925;SDS011;964;42.606;23.588;2023-06-22T08:21:18;9.40;;;8.53;;
1925;SDS011;964;42.606;23.588;2023-06-22T08:23:45;9.30;;;8.40;;
1925;SDS011;964;42.606;23.588;2023-06-22T08:26:11;8.77;;;8.00;;
1925;SDS011;964;42.606;23.588;2023-06-22T08:28:38;12.10;;;7.80;;
1925;SDS011;964;42.606;23.588;2023-06-22T08:31:05;8.87;;;8.07;;
1925;SDS011;964;42.606;23.588;2023-06-22T08:33:31;9.37;;;8.07;;
1925;SDS011;964;42.606;23.588;2023-06-22T08:35:59;9.90;;;8.90;;
1925;SDS011;964;42.606;23.588;2023-06-22T08:38:26;9.20;;;8.30;;
1925;SDS011;964;42.606;23.588;2023-06-22T08:40:53;9.53;;;8.70;;
1925;SDS011;964;42.606;23.588;2023-06-22T08:43:19;9.73;;;8.83;;
1925;SDS011;964;42.606;23.588;2023-06-22T08:45:46;9.30;;;8.50;;
1925;SDS011;964;42.606;23.588;2023-06-22T08:48:13;8.17;;;7.40;;
1925;SDS011;964;42.606;23.588;2023-06-22T08:50:40;8.37;;;7.63;;
1925;SDS011;964;42.606;23.588;2023-06-22T08:53:08;8.70;;;7.80;;
1925;SDS011;964;42.606;23.588;2023-06-22T08:55:34;9.63;;;8.83;;
1925;SDS011;964;42.606;23.588;2023-06-22T08:58:01;9.30;;;8.50;;
1925;SDS011;964;42.606;23.588;2023-06-22T09:00:28;8.60;;;7.80;;
1925;SDS011;964;42.606;23.588;2023-06-22T09:02:58;9.10;;;8.38;;
1925;SDS011;964;42.606;23.588;2023-06-22T09:05:24;8.30;;;7.50;;
1925;SDS011;964;42.606;23.588;2023-06-22T09:07:51;9.50;;;8.70;;
1925;SDS011;964;42.606;23.588;2023-06-22T09:10:21;9.30;;;8.38;;
1925;SDS011;964;42.606;23.588;2023-06-22T09:12:47;10.18;;;7.82;;
1925;SDS011;964;42.606;23.588;2023-06-22T09:15:14;9.30;;;8.50;;
1925;SDS011;964;42.606;23.588;2023-06-22T09:17:41;9.32;;;8.52;;
1925;SDS011;964;42.606;23.588;2023-06-22T09:20:08;9.35;;;8.45;;
1925;SDS011;964;42.606;23.588;2023-06-22T09:22:36;8.10;;;7.38;;
1925;SDS011;964;42.606;23.588;2023-06-22T09:25:03;8.50;;;7.80;;
1925;SDS011;964;42.606;23.588;2023-06-22T09:27:32;9.20;;;8.45;;
1925;SDS011;964;42.606;23.588;2023-06-22T09:29:58;8.30;;;7.60;;
1925;SDS011;964;42.606;23.588;2023-06-22T09:32:25;8.77;;;8.07;;
1925;SDS011;964;42.606;23.588;2023-06-22T09:34:53;9.35;;;8.35;;
1925;SDS011;964;42.606;23.588;2023-06-22T09:37:27;8.73;;;7.93;;
1925;SDS011;964;42.606;23.588;2023-06-22T09:39:54;9.18;;;8.48;;
1925;SDS011;964;42.606;23.588;2023-06-22T09:42:21;9.25;;;8.35;;
1925;SDS011;964;42.606;23.588;2023-06-22T09:44:49;9.70;;;8.70;;
1925;SDS011;964;42.606;23.588;2023-06-22T09:47:15;9.77;;;8.88;;
1925;SDS011;964;42.606;23.588;2023-06-22T09:49:42;10.02;;;9.02;;
1925;SDS011;964;42.606;23.588;2023-06-22T09:52:09;8.55;;;7.78;;
1925;SDS011;964;42.606;23.588;2023-06-22T09:54:36;8.40;;;7.70;;
1925;SDS011;964;42.606;23.588;2023-06-22T09:57:03;9.65;;;8.70;;
1925;SDS011;964;42.606;23.588;2023-06-22T09:59:30;8.82;;;8.02;;
1925;SDS011;964;42.606;23.588;2023-06-22T10:01:58;9.88;;;8.93;;
1925;SDS011;964;42.606;23.588;2023-06-22T10:04:25;9.90;;;9.10;;
1925;SDS011;964;42.606;23.588;2023-06-22T10:06:51;9.18;;;8.38;;
1925;SDS011;964;42.606;23.588;2023-06-22T10:09:18;8.55;;;7.82;;
1925;SDS011;964;42.606;23.588;2023-06-22T10:11:46;9.15;;;8.35;;
1925;SDS011;964;42.606;23.588;2023-06-22T10:14:13;8.77;;;8.07;;
1925;SDS011;964;42.606;23.588;2023-06-22T10:16:39;8.98;;;8.15;;
1925;SDS011;964;42.606;23.588;2023-06-22T10:19:07;9.02;;;8.30;;
1925;SDS011;964;42.606;23.588;2023-06-22T10:21:34;8.68;;;7.90;;
1925;SDS011;964;42.606;23.588;2023-06-22T10:24:01;9.88;;;8.98;;
1925;SDS011;964;42.606;23.588;2023-06-22T10:26:31;10.18;;;8.77;;
1925;SDS011;964;42.606;23.588;2023-06-22T10:28:58;8.07;;;7.43;;
1925;SDS011;964;42.606;23.588;2023-06-22T10:31:25;8.98;;;8.15;;
1925;SDS011;964;42.606;23.588;2023-06-22T10:33:52;8.52;;;7.80;;
1925;SDS011;964;42.606;23.588;2023-06-22T10:36:21;7.93;;;7.20;;
1925;SDS011;964;42.606;23.588;2023-06-22T10:38:48;8.90;;;8.13;;
1925;SDS011;964;42.606;23.588;2023-06-22T10:41:15;9.38;;;8.68;;
1925;SDS011;964;42.606;23.588;2023-06-22T10:43:42;8.88;;;8.18;;
1925;SDS011;964;42.606;23.588;2023-06-22T10:46:09;9.15;;;8.43;;
1925;SDS011;964;42.606;23.588;2023-06-22T10:48:35;9.18;;;8.38;;
1925;SDS011;964;42.606;23.588;2023-06-22T10:51:02;10.00;;;8.95;;
1925;SDS011;964;42.606;23.588;2023-06-22T10:53:31;9.30;;;8.45;;
1925;SDS011;964;42.606;23.588;2023-06-22T10:55:58;9.20;;;8.43;;
1925;SDS011;964;42.606;23.588;2023-06-22T10:58:24;8.48;;;7.68;;
1925;SDS011;964;42.606;23.588;2023-06-22T11:00:51;9.75;;;8.95;;
1925;SDS011;964;42.606;23.588;2023-06-22T11:03:18;9.93;;;8.63;;
1925;SDS011;964;42.606;23.588;2023-06-22T11:05:45;9.07;;;7.95;;
1925;SDS011;964;42.606;23.588;2023-06-22T11:08:12;8.77;;;8.07;;
1925;SDS011;964;42.606;23.588;2023-06-22T11:10:41;9.40;;;7.80;;
1925;SDS011;964;42.606;23.588;2023-06-22T11:13:08;9.18;;;8.23;;
1925;SDS011;964;42.606;23.588;2023-06-22T11:15:35;8.95;;;8.15;;
1925;SDS011;964;42.606;23.588;2023-06-22T11:18:02;8.68;;;7.97;;
1925;SDS011;964;42.606;23.588;2023-06-22T11:20:30;9.13;;;8.32;;
1925;SDS011;964;42.606;23.588;2023-06-22T11:22:59;8.50;;;7.80;;
1925;SDS011;964;42.606;23.588;2023-06-22T11:25:26;8.50;;;7.80;;
1925;SDS011;964;42.606;23.588;2023-06-22T11:27:55;8.90;;;8.20;;
1925;SDS011;964;42.606;23.588;2023-06-22T11:30:22;8.68;;;7.88;;
1925;SDS011;964;42.606;23.588;2023-06-22T11:32:49;8.88;;;8.00;;
1925;SDS011;964;42.606;23.588;2023-06-22T11:35:15;10.00;;;9.10;;
1925;SDS011;964;42.606;23.588;2023-06-22T11:37:42;9.30;;;8.50;;
1925;SDS011;964;42.606;23.588;2023-06-22T11:40:09;9.60;;;8.70;;
1925;SDS011;964;42.606;23.588;2023-06-22T11:42:36;9.10;;;8.25;;
1925;SDS011;964;42.606;23.588;2023-06-22T11:45:05;11.43;;;9.07;;
1925;SDS011;964;42.606;23.588;2023-06-22T11:47:32;9.10;;;8.30;;
1925;SDS011;964;42.606;23.588;2023-06-22T11:49:59;8.95;;;8.15;;
1925;SDS011;964;42.606;23.588;2023-06-22T11:52:26;9.43;;;8.48;;
1925;SDS011;964;42.606;23.588;2023-06-22T11:54:52;9.30;;;8.38;;
1925;SDS011;964;42.606;23.588;2023-06-22T11:57:19;8.60;;;7.90;;
1925;SDS011;964;42.606;23.588;2023-06-22T11:59:46;8.32;;;7.63;;
1925;SDS011;964;42.606;23.588;2023-06-22T12:02:14;8.45;;;7.72;;
1925;SDS011;964;42.606;23.588;2023-06-22T12:04:40;10.40;;;7.90;;
1925;SDS011;964;42.606;23.588;2023-06-22T12:07:07;9.27;;;8.27;;
1925;SDS011;964;42.606;23.588;2023-06-22T12:09:34;9.13;;;8.30;;
1925;SDS011;964;42.606;23.588;2023-06-22T12:12:00;8.55;;;7.85;;
1925;SDS011;964;42.606;23.588;2023-06-22T12:14:27;8.55;;;7.43;;
1925;SDS011;964;42.606;23.588;2023-06-22T12:16:54;10.95;;;8.23;;
1925;SDS011;964;42.606;23.588;2023-06-22T12:19:22;9.50;;;8.68;;
1925;SDS011;964;42.606;23.588;2023-06-22T12:21:48;12.32;;;8.05;;
1925;SDS011;964;42.606;23.588;2023-06-22T12:24:15;9.85;;;8.43;;
1925;SDS011;964;42.606;23.588;2023-06-22T12:26:42;9.02;;;8.20;;
1925;SDS011;964;42.606;23.588;2023-06-22T12:29:09;8.70;;;7.90;;
1925;SDS011;964;42.606;23.588;2023-06-22T12:31:35;9.43;;;8.50;;
1925;SDS011;964;42.606;23.588;2023-06-22T12:34:03;15.65;;;8.65;;
1925;SDS011;964;42.606;23.588;2023-06-22T12:36:32;11.88;;;8.48;;
1925;SDS011;964;42.606;23.588;2023-06-22T12:38:58;8.57;;;7.87;;
1925;SDS011;964;42.606;23.588;2023-06-22T12:41:25;10.90;;;8.80;;
1925;SDS011;964;42.606;23.588;2023-06-22T12:43:52;9.25;;;8.35;;
1925;SDS011;964;42.606;23.588;2023-06-22T12:46:18;9.70;;;8.80;;
1925;SDS011;964;42.606;23.588;2023-06-22T12:48:45;10.27;;;9.37;;
1925;SDS011;964;42.606;23.588;2023-06-22T12:51:11;10.60;;;9.27;;
1925;SDS011;964;42.606;23.588;2023-06-22T12:53:39;11.63;;;9.77;;
1925;SDS011;964;42.606;23.588;2023-06-22T12:56:06;16.43;;;9.90;;
1925;SDS011;964;42.606;23.588;2023-06-22T12:58:33;10.23;;;9.23;;
1925;SDS011;964;42.606;23.588;2023-06-22T13:00:59;10.10;;;9.03;;
1925;SDS011;964;42.606;23.588;2023-06-22T13:03:26;10.57;;;9.30;;
1925;SDS011;964;42.606;23.588;2023-06-22T13:05:53;10.80;;;9.90;;
1925;SDS011;964;42.606;23.588;2023-06-22T13:08:20;11.23;;;10.23;;
1925;SDS011;964;42.606;23.588;2023-06-22T13:10:48;10.43;;;9.20;;
1925;SDS011;964;42.606;23.588;2023-06-22T13:13:14;10.43;;;9.33;;
1925;SDS011;964;42.606;23.588;2023-06-22T13:15:41;10.07;;;9.17;;
1925;SDS011;964;42.606;23.588;2023-06-22T13:18:08;8.97;;;8.10;;
1925;SDS011;964;42.606;23.588;2023-06-22T13:20:35;11.23;;;8.53;;
1925;SDS011;964;42.606;23.588;2023-06-22T13:23:01;9.23;;;8.33;;
1925;SDS011;964;42.606;23.588;2023-06-22T13:25:29;9.47;;;7.80;;
1925;SDS011;964;42.606;23.588;2023-06-22T13:27:57;8.13;;;7.20;;
1925;SDS011;964;42.606;23.588;2023-06-22T13:30:24;12.60;;;7.37;;
1925;SDS011;964;42.606;23.588;2023-06-22T13:32:50;8.67;;;7.80;;
1925;SDS011;964;42.606;23.588;2023-06-22T13:35:17;9.03;;;8.17;;
1925;SDS011;964;42.606;23.588;2023-06-22T13:37:44;9.10;;;8.30;;
1925;SDS011;964;42.606;23.588;2023-06-22T13:40:10;10.27;;;9.17;;
1925;SDS011;964;42.606;23.588;2023-06-22T13:42:37;10.00;;;9.00;;
1925;SDS011;964;42.606;23.588;2023-06-22T13:45:06;12.17;;;8.73;;
1925;SDS011;964;42.606;23.588;2023-06-22T13:47:33;9.10;;;8.30;;
1925;SDS011;964;42.606;23.588;2023-06-22T13:50:00;9.30;;;8.40;;
1925;SDS011;964;42.606;23.588;2023-06-22T13:52:26;9.73;;;8.73;;
1925;SDS011;964;42.606;23.588;2023-06-22T13:54:53;9.50;;;8.50;;
1925;SDS011;964;42.606;23.588;2023-06-22T13:57:20;9.63;;;8.77;;
1925;SDS011;964;42.606;23.588;2023-06-22T13:59:46;8.83;;;7.93;;
1925;SDS011;964;42.606;23.588;2023-06-22T14:02:14;12.37;;;9.30;;
1925;SDS011;964;42.606;23.588;2023-06-22T14:04:41;9.10;;;8.20;;
1925;SDS011;964;42.606;23.588;2023-06-22T14:07:08;12.30;;;9.00;;
1925;SDS011;964;42.606;23.588;2023-06-22T14:09:35;10.40;;;8.80;;
1925;SDS011;964;42.606;23.588;2023-06-22T14:12:05;10.83;;;9.50;;
1925;SDS011;964;42.606;23.588;2023-06-22T14:14:32;10.97;;;9.83;;
1925;SDS011;964;42.606;23.588;2023-06-22T14:16:59;11.50;;;9.20;;
1925;SDS011;964;42.606;23.588;2023-06-22T14:19:27;10.43;;;9.43;;
1925;SDS011;964;42.606;23.588;2023-06-22T14:21:53;10.00;;;9.10;;
1925;SDS011;964;42.606;23.588;2023-06-22T14:24:21;10.10;;;9.10;;
1925;SDS011;964;42.606;23.588;2023-06-22T14:26:48;11.30;;;9.97;;
1925;SDS011;964;42.606;23.588;2023-06-22T14:29:15;10.37;;;9.37;;
1925;SDS011;964;42.606;23.588;2023-06-22T14:31:44;10.90;;;9.80;;
1925;SDS011;964;42.606;23.588;2023-06-22T14:34:11;10.20;;;9.20;;
1925;SDS011;964;42.606;23.588;2023-06-22T14:36:39;9.97;;;9.00;;
1925;SDS011;964;42.606;23.588;2023-06-22T14:39:06;10.40;;;8.90;;
1925;SDS011;964;42.606;23.588;2023-06-22T14:41:33;10.10;;;8.53;;
1925;SDS011;964;42.606;23.588;2023-06-22T14:43:59;8.90;;;8.00;;
1925;SDS011;964;42.606;23.588;2023-06-22T14:46:26;10.97;;;8.90;;
1925;SDS011;964;42.606;23.588;2023-06-22T14:48:53;10.07;;;9.17;;
1925;SDS011;964;42.606;23.588;2023-06-22T14:51:20;9.97;;;8.97;;
1925;SDS011;964;42.606;23.588;2023-06-22T14:53:48;11.17;;;9.70;;
1925;SDS011;964;42.606;23.588;2023-06-22T14:56:15;12.50;;;9.00;;
1925;SDS011;964;42.606;23.588;2023-06-22T14:58:42;9.90;;;8.90;;